createdAt,value
2019-05-09T00:01:25.688Z,100.00
2019-05-09T00:03:55.046Z,100.00
2019-05-09T00:06:24.473Z,100.00
2019-05-09T00:08:53.815Z,100.00
2019-05-09T00:11:24.581Z,100.00
2019-05-09T00:13:54.100Z,100.00
2019-05-09T00:16:23.730Z,100.00
2019-05-09T00:18:54.333Z,100.00
2019-05-09T00:21:25.335Z,100.00
2019-05-09T00:23:54.675Z,100.00
2019-05-09T00:26:24.041Z,100.00
2019-05-09T00:29:11.417Z,100.00
2019-05-09T00:31:48.155Z,100.00
2019-05-09T00:34:19.169Z,100.00
2019-05-09T00:36:48.542Z,100.00
2019-05-09T00:39:17.907Z,100.00
2019-05-09T00:41:47.272Z,100.00
2019-05-09T00:44:24.355Z,100.00
2019-05-09T00:46:58.339Z,100.00
2019-05-09T00:49:28.895Z,100.00
2019-05-09T00:51:58.256Z,100.00
2019-05-09T00:54:27.638Z,100.00
2019-05-09T00:56:57.004Z,100.00
2019-05-09T00:59:26.395Z,100.00
2019-05-09T01:01:55.925Z,100.00
2019-05-09T01:04:25.285Z,100.00
2019-05-09T01:06:54.651Z,100.00
2019-05-09T01:09:24.330Z,100.00
2019-05-09T01:11:53.685Z,100.00
2019-05-09T01:14:23.603Z,100.00
2019-05-09T01:16:53.613Z,100.00
2019-05-09T01:19:23.363Z,100.00
2019-05-09T01:21:54.318Z,100.00
2019-05-09T01:24:23.756Z,100.00
2019-05-09T01:26:54.173Z,100.00
2019-05-09T01:29:23.666Z,100.00
2019-05-09T01:31:54.692Z,100.00
2019-05-09T01:34:25.665Z,100.00
2019-05-09T01:37:03.654Z,100.00
2019-05-09T01:39:34.114Z,100.00
2019-05-09T01:42:03.702Z,100.00
2019-05-09T01:44:33.612Z,100.00
2019-05-09T01:47:03.965Z,100.00
2019-05-09T01:49:34.119Z,100.00
2019-05-09T01:52:03.887Z,100.00
2019-05-09T01:54:34.830Z,100.00
2019-05-09T01:57:04.263Z,100.00
2019-05-09T01:59:34.206Z,100.00
2019-05-09T02:02:08.794Z,100.00
2019-05-09T02:04:35.664Z,100.00
2019-05-09T02:07:05.078Z,100.00
2019-05-09T02:09:34.604Z,100.00
2019-05-09T02:12:04.358Z,100.00
2019-05-09T02:14:43.541Z,100.00
2019-05-09T02:17:19.899Z,100.00
2019-05-09T02:19:49.249Z,100.00
2019-05-09T02:22:34.466Z,100.00
2019-05-09T02:25:06.777Z,100.00
2019-05-09T02:27:36.161Z,100.00
2019-05-09T02:30:14.768Z,100.00
2019-05-09T02:32:44.750Z,100.00
2019-05-09T02:35:13.132Z,100.00
2019-05-09T02:37:42.497Z,100.00
2019-05-09T02:40:12.625Z,100.00
2019-05-09T02:42:42.061Z,100.00
2019-05-09T02:45:11.656Z,100.00
2019-05-09T02:47:41.042Z,100.00
2019-05-09T02:50:11.945Z,100.00
2019-05-09T02:52:41.275Z,100.00
2019-05-09T02:55:11.002Z,100.00
2019-05-09T02:57:41.116Z,100.00
2019-05-09T03:00:21.150Z,100.00
2019-05-09T03:02:59.640Z,100.00
2019-05-09T03:05:29.834Z,100.00
2019-05-09T03:07:59.398Z,100.00
2019-05-09T03:10:29.497Z,100.00
2019-05-09T03:12:59.592Z,100.00
2019-05-09T03:15:29.521Z,100.00
2019-05-09T03:17:59.933Z,100.00
2019-05-09T03:20:40.001Z,100.00
2019-05-09T03:23:09.490Z,100.00
2019-05-09T03:25:40.743Z,100.00
2019-05-09T03:28:14.388Z,100.00
2019-05-09T03:30:45.386Z,100.00
2019-05-09T03:33:14.774Z,100.00
2019-05-09T03:35:44.132Z,100.00
2019-05-09T03:38:13.477Z,100.00
2019-05-09T03:40:42.823Z,100.00
2019-05-09T03:43:12.181Z,100.00
2019-05-09T03:45:43.197Z,100.00
2019-05-09T03:48:19.926Z,100.00
2019-05-09T03:50:49.299Z,100.00
2019-05-09T03:53:18.653Z,100.00
2019-05-09T03:55:48.784Z,100.00
2019-05-09T03:58:21.407Z,100.00
2019-05-09T04:00:50.769Z,100.00
2019-05-09T04:03:20.455Z,100.00
2019-05-09T04:05:59.157Z,100.00
2019-05-09T04:08:20.828Z,100.00
2019-05-09T04:10:53.714Z,100.00
2019-05-09T04:13:24.794Z,100.00
2019-05-09T04:15:54.175Z,100.00
2019-05-09T04:18:23.559Z,100.00
2019-05-09T04:20:52.913Z,100.00
2019-05-09T04:23:22.262Z,100.00
2019-05-09T04:25:53.272Z,100.00
2019-05-09T04:28:22.641Z,100.00
2019-05-09T04:30:51.998Z,100.00
2019-05-09T04:36:08.486Z,100.00
2019-05-09T04:38:39.929Z,100.00
2019-05-09T04:41:08.867Z,100.00
2019-05-09T04:43:39.911Z,100.00
2019-05-09T04:46:12.972Z,100.00
2019-05-09T04:48:40.305Z,100.00
2019-05-09T04:51:09.698Z,100.00
2019-05-09T04:53:39.988Z,100.00
2019-05-09T04:56:19.936Z,100.00
2019-05-09T04:58:49.302Z,100.00
2019-05-09T05:01:23.045Z,100.00
2019-05-09T05:03:54.052Z,100.00
2019-05-09T05:06:23.408Z,100.00
2019-05-09T05:08:52.873Z,100.00
2019-05-09T05:11:22.230Z,100.00
2019-05-09T05:13:51.570Z,100.00
2019-05-09T05:16:20.941Z,100.00
2019-05-09T05:18:50.316Z,100.00
2019-05-09T05:21:20.496Z,100.00
2019-05-09T05:23:57.741Z,100.00
2019-05-09T05:26:27.714Z,100.00
2019-05-09T05:28:58.078Z,100.00
2019-05-09T05:31:28.551Z,100.00
2019-05-09T05:34:05.397Z,100.00
2019-05-09T05:36:34.743Z,100.00
2019-05-09T05:39:07.511Z,100.00
2019-05-09T05:41:37.856Z,100.00
2019-05-09T05:44:08.616Z,100.00
2019-05-09T05:46:48.323Z,100.00
2019-05-09T05:49:18.660Z,100.00
2019-05-09T05:51:50.751Z,100.00
2019-05-09T05:54:21.896Z,100.00
2019-05-09T05:56:51.267Z,100.00
2019-05-09T05:59:20.631Z,99.41
2019-05-09T06:01:49.992Z,98.79
2019-05-09T06:04:19.327Z,98.51
2019-05-09T06:06:48.707Z,98.39
2019-05-09T06:09:18.938Z,97.93
2019-05-09T06:11:48.823Z,97.53
2019-05-09T06:14:18.670Z,97.51
2019-05-09T06:16:48.812Z,98.01
2019-05-09T06:19:18.400Z,97.64
2019-05-09T06:21:52.082Z,96.40
2019-05-09T06:24:19.270Z,92.52
2019-05-09T06:26:48.617Z,91.18
2019-05-09T06:29:18.069Z,89.79
2019-05-09T06:31:48.454Z,88.60
2019-05-09T06:34:18.715Z,82.54
2019-05-09T06:36:49.073Z,81.55
2019-05-09T06:42:05.393Z,76.59
2019-05-09T06:44:48.222Z,69.00
2019-05-09T06:47:22.247Z,58.34
2019-05-09T06:49:53.245Z,53.01
2019-05-09T06:52:22.607Z,51.58
2019-05-09T06:54:51.945Z,50.44
2019-05-09T06:57:21.292Z,50.26
2019-05-09T06:59:50.685Z,49.70
2019-05-09T07:02:25.397Z,47.87
2019-05-09T07:04:58.176Z,46.27
2019-05-09T07:07:32.168Z,45.72
2019-05-09T07:10:07.557Z,43.19
2019-05-09T07:12:37.956Z,43.04
2019-05-09T07:15:08.873Z,41.83
2019-05-09T07:17:38.790Z,41.20
2019-05-09T07:20:08.699Z,39.92
2019-05-09T07:22:39.772Z,38.18
2019-05-09T07:25:11.483Z,38.09
2019-05-09T07:27:42.446Z,38.01
2019-05-09T07:30:15.080Z,36.73
2019-05-09T07:33:01.114Z,36.75
2019-05-09T07:35:30.487Z,35.86
2019-05-09T07:37:59.830Z,36.23
2019-05-09T07:40:30.742Z,37.61
2019-05-09T07:43:00.211Z,39.25
2019-05-09T07:45:30.539Z,40.00
2019-05-09T07:47:59.881Z,40.69
2019-05-09T07:50:29.245Z,43.51
2019-05-09T07:52:58.591Z,45.73
2019-05-09T07:55:27.939Z,46.59
2019-05-09T07:57:59.090Z,46.63
2019-05-09T08:00:33.574Z,47.38
2019-05-09T08:03:02.943Z,47.49
2019-05-09T08:05:32.439Z,47.66
2019-05-09T08:08:01.804Z,49.25
2019-05-09T08:10:33.226Z,51.06
2019-05-09T08:13:02.226Z,52.47
2019-05-09T08:15:31.589Z,53.36
2019-05-09T08:18:00.944Z,53.70
2019-05-09T08:20:30.267Z,53.97
2019-05-09T08:23:02.122Z,54.33
2019-05-09T08:25:30.676Z,55.37
2019-05-09T08:28:00.018Z,56.17
2019-05-09T08:30:35.920Z,56.89
2019-05-09T08:33:00.435Z,57.15
2019-05-09T08:35:30.496Z,57.31
2019-05-09T08:37:59.828Z,57.53
2019-05-09T08:40:29.213Z,57.54
2019-05-09T08:42:59.118Z,57.66
2019-05-09T08:45:31.573Z,57.97
2019-05-09T08:47:59.730Z,58.72
2019-05-09T08:50:38.886Z,58.70
2019-05-09T08:53:08.378Z,59.24
2019-05-09T08:55:38.483Z,59.17
2019-05-09T08:58:08.237Z,59.44
2019-05-09T09:00:39.000Z,59.40
2019-05-09T09:03:08.581Z,60.54
2019-05-09T09:05:38.338Z,61.15
2019-05-09T09:08:08.473Z,61.29
2019-05-09T09:10:38.672Z,61.71
2019-05-09T09:13:09.009Z,61.43
2019-05-09T09:16:02.417Z,61.42
2019-05-09T09:18:09.471Z,61.42
2019-05-09T09:20:38.879Z,61.43
2019-05-09T09:23:09.114Z,61.44
2019-05-09T09:25:39.097Z,61.54
2019-05-09T09:28:09.121Z,61.67
2019-05-09T09:30:39.153Z,60.91
2019-05-09T09:33:13.135Z,60.51
2019-05-09T09:35:39.610Z,60.07
2019-05-09T09:38:09.534Z,59.62
2019-05-09T09:40:39.001Z,59.35
2019-05-09T09:43:09.383Z,56.67
2019-05-09T09:45:38.897Z,54.80
2019-05-09T09:48:09.255Z,53.23
2019-05-09T09:50:38.737Z,51.89
2019-05-09T09:53:08.933Z,51.40
2019-05-09T09:55:38.805Z,51.01
2019-05-09T09:58:08.453Z,52.10
2019-05-09T10:00:58.698Z,52.70
2019-05-09T10:03:28.268Z,52.88
2019-05-09T10:08:44.465Z,52.82
2019-05-09T10:11:14.793Z,52.52
2019-05-09T10:13:44.155Z,53.20
2019-05-09T10:16:33.046Z,52.95
2019-05-09T10:19:04.040Z,50.55
2019-05-09T10:21:35.040Z,49.89
2019-05-09T10:24:04.659Z,49.53
2019-05-09T10:26:34.302Z,48.26
2019-05-09T10:29:03.660Z,49.67
2019-05-09T10:31:33.007Z,50.67
2019-05-09T10:34:02.360Z,52.00
2019-05-09T10:36:32.686Z,52.91
2019-05-09T10:39:02.041Z,53.87
2019-05-09T10:41:32.502Z,55.00
2019-05-09T10:44:03.447Z,55.22
2019-05-09T10:46:52.069Z,54.71
2019-05-09T10:49:09.143Z,54.67
2019-05-09T10:51:38.484Z,54.24
2019-05-09T10:54:08.363Z,55.49
2019-05-09T10:56:38.506Z,54.83
2019-05-09T10:59:08.087Z,55.65
2019-05-09T11:01:38.309Z,56.26
2019-05-09T11:04:08.776Z,56.51
2019-05-09T11:06:38.748Z,57.64
2019-05-09T11:09:09.727Z,57.48
2019-05-09T11:11:39.268Z,58.25
2019-05-09T11:14:08.859Z,57.80
2019-05-09T11:16:45.892Z,57.69
2019-05-09T11:19:09.303Z,56.87
2019-05-09T11:21:39.305Z,57.19
2019-05-09T11:24:08.729Z,56.96
2019-05-09T11:26:39.942Z,56.88
2019-05-09T11:29:09.123Z,56.37
2019-05-09T11:31:38.699Z,56.25
2019-05-09T11:34:09.069Z,55.47
2019-05-09T11:36:38.499Z,55.24
2019-05-09T11:39:10.718Z,54.57
2019-05-09T11:41:39.927Z,54.36
2019-05-09T11:44:09.290Z,55.00
2019-05-09T11:46:38.649Z,55.21
2019-05-09T11:49:08.624Z,55.12
2019-05-09T11:51:37.987Z,54.29
2019-05-09T11:54:09.112Z,54.70
2019-05-09T11:56:39.570Z,56.03
2019-05-09T11:59:08.934Z,56.21
2019-05-09T12:01:39.839Z,56.50
2019-05-09T12:04:09.639Z,56.44
2019-05-09T12:06:38.998Z,55.55
2019-05-09T12:09:09.423Z,54.77
2019-05-09T12:11:44.006Z,55.04
2019-05-09T12:14:09.845Z,53.68
2019-05-09T12:16:39.192Z,54.30
2019-05-09T12:19:08.555Z,54.46
2019-05-09T12:21:46.492Z,54.40
2019-05-09T12:24:09.229Z,54.41
2019-05-09T12:26:39.248Z,53.97
2019-05-09T12:29:08.894Z,53.18
2019-05-09T12:31:38.866Z,53.42
2019-05-09T12:34:09.107Z,52.97
2019-05-09T12:36:39.847Z,53.05
2019-05-09T12:39:09.456Z,53.41
2019-05-09T12:41:38.792Z,53.24
2019-05-09T12:44:08.807Z,54.01
2019-05-09T12:46:39.337Z,53.99
2019-05-09T12:49:10.008Z,53.22
2019-05-09T12:54:27.959Z,53.92
2019-05-09T12:56:59.153Z,54.11
2019-05-09T12:59:28.697Z,54.82
2019-05-09T13:01:58.271Z,54.24
2019-05-09T13:04:28.207Z,54.22
2019-05-09T13:06:58.684Z,53.96
2019-05-09T13:09:28.701Z,54.47
2019-05-09T13:11:58.107Z,54.57
2019-05-09T13:14:28.567Z,55.07
2019-05-09T13:17:14.806Z,55.27
2019-05-09T13:19:48.021Z,55.24
2019-05-09T13:22:18.477Z,55.06
2019-05-09T13:24:47.951Z,55.43
2019-05-09T13:27:18.983Z,55.68
2019-05-09T13:29:49.255Z,55.13
2019-05-09T13:32:18.983Z,55.93
2019-05-09T13:34:48.805Z,56.28
2019-05-09T13:37:18.920Z,56.45
2019-05-09T13:39:48.393Z,56.70
2019-05-09T13:42:19.648Z,56.87
2019-05-09T13:44:48.785Z,57.26
2019-05-09T13:47:18.157Z,58.13
2019-05-09T13:49:48.440Z,58.43
2019-05-09T13:52:18.150Z,59.05
2019-05-09T13:54:48.228Z,59.50
2019-05-09T13:57:18.799Z,60.29
2019-05-09T13:59:48.794Z,60.31
2019-05-09T14:02:18.942Z,60.20
2019-05-09T14:04:48.859Z,60.33
2019-05-09T14:07:19.361Z,60.10
2019-05-09T14:09:48.871Z,60.30
2019-05-09T14:12:18.220Z,60.25
2019-05-09T14:14:47.618Z,60.38
2019-05-09T14:17:19.111Z,60.18
2019-05-09T14:19:51.186Z,59.86
2019-05-09T14:22:20.100Z,60.04
2019-05-09T14:24:50.512Z,60.15
2019-05-09T14:27:20.832Z,59.85
2019-05-09T14:29:50.180Z,59.99
2019-05-09T14:32:19.537Z,60.24
2019-05-09T14:34:48.904Z,59.62
2019-05-09T14:37:18.290Z,59.38
2019-05-09T14:39:57.768Z,59.52
2019-05-09T14:42:19.013Z,59.82
2019-05-09T14:44:49.390Z,59.21
2019-05-09T14:47:18.754Z,59.31
2019-05-09T14:49:49.822Z,59.42
2019-05-09T14:52:19.212Z,60.01
2019-05-09T14:54:48.593Z,59.88
2019-05-09T14:57:17.958Z,59.02
2019-05-09T14:59:47.310Z,59.26
2019-05-09T15:02:17.909Z,59.13
2019-05-09T15:04:48.567Z,58.60
2019-05-09T15:07:19.419Z,58.27
2019-05-09T15:09:49.012Z,58.53
2019-05-09T15:12:18.660Z,57.59
2019-05-09T15:14:48.105Z,56.97
2019-05-09T15:17:18.552Z,55.66
2019-05-09T15:19:57.547Z,55.47
2019-05-09T15:22:19.057Z,55.17
2019-05-09T15:24:48.402Z,55.88
2019-05-09T15:27:17.921Z,56.86
2019-05-09T15:29:48.623Z,57.08
2019-05-09T15:32:18.437Z,57.47
2019-05-09T15:34:47.784Z,58.09
2019-05-09T15:37:18.678Z,58.16
2019-05-09T15:39:48.506Z,58.50
2019-05-09T15:42:18.365Z,58.44
2019-05-09T15:44:47.820Z,58.66
2019-05-09T15:47:24.546Z,59.13
2019-05-09T15:49:53.905Z,59.23
2019-05-09T15:52:23.272Z,59.07
2019-05-09T15:54:52.642Z,58.42
2019-05-09T15:57:22.016Z,58.09
2019-05-09T15:59:51.477Z,57.76
2019-05-09T16:02:20.809Z,58.36
2019-05-09T16:04:50.183Z,58.50
2019-05-09T16:07:19.522Z,58.60
2019-05-09T16:09:48.896Z,59.16
2019-05-09T16:12:18.588Z,59.50
2019-05-09T16:14:48.722Z,59.71
2019-05-09T16:17:19.150Z,59.63
2019-05-09T16:19:49.691Z,59.70
2019-05-09T16:22:19.240Z,59.99
2019-05-09T16:24:48.776Z,59.65
2019-05-09T16:27:18.080Z,59.90
2019-05-09T16:29:48.592Z,59.83
2019-05-09T16:32:19.049Z,60.03
2019-05-09T16:34:48.407Z,60.14
2019-05-09T16:37:17.796Z,59.86
2019-05-09T16:39:47.725Z,60.12
2019-05-09T16:42:17.113Z,60.19
2019-05-09T16:44:48.115Z,60.21
2019-05-09T16:47:21.857Z,60.29
2019-05-09T16:49:48.587Z,60.13
2019-05-09T16:52:18.064Z,60.05
2019-05-09T16:54:50.303Z,59.70
2019-05-09T16:57:19.608Z,60.04
2019-05-09T16:59:48.956Z,60.10
2019-05-09T17:02:24.503Z,60.24
2019-05-09T17:04:49.415Z,60.44
2019-05-09T17:07:18.780Z,60.58
2019-05-09T17:09:48.577Z,61.03
2019-05-09T17:12:18.624Z,61.32
2019-05-09T17:14:48.118Z,61.42
2019-05-09T17:17:17.960Z,61.50
2019-05-09T17:19:48.052Z,61.94
2019-05-09T17:22:19.296Z,61.80
2019-05-09T17:24:49.312Z,61.87
2019-05-09T17:27:19.021Z,61.74
2019-05-09T17:29:48.488Z,61.89
2019-05-09T17:32:18.411Z,62.14
2019-05-09T17:34:47.771Z,62.32
2019-05-09T17:37:17.715Z,62.43
2019-05-09T17:39:48.307Z,62.49
2019-05-09T17:42:18.312Z,62.66
2019-05-09T17:44:49.039Z,62.86
2019-05-09T17:47:19.366Z,63.07
2019-05-09T17:49:48.714Z,63.36
2019-05-09T17:52:18.388Z,63.74
2019-05-09T17:54:48.552Z,64.03
2019-05-09T17:57:18.837Z,64.09
2019-05-09T17:59:48.977Z,64.31
2019-05-09T18:02:18.425Z,66.57
2019-05-09T18:04:48.184Z,68.41
2019-05-09T18:07:18.558Z,73.58
2019-05-09T18:09:48.561Z,77.71
2019-05-09T18:12:19.030Z,80.74
2019-05-09T18:14:49.478Z,82.31
2019-05-09T18:17:18.915Z,83.66
2019-05-09T18:19:48.297Z,84.69
2019-05-09T18:22:18.617Z,85.73
2019-05-09T18:24:48.344Z,86.74
2019-05-09T18:27:18.854Z,87.54
2019-05-09T18:29:48.309Z,88.30
2019-05-09T18:32:19.314Z,89.02
2019-05-09T18:34:48.732Z,89.72
2019-05-09T18:37:18.105Z,90.39
2019-05-09T18:39:48.452Z,90.95
2019-05-09T18:42:17.999Z,91.44
2019-05-09T18:44:47.719Z,91.91
2019-05-09T18:47:18.511Z,92.95
2019-05-09T18:49:47.909Z,92.95
2019-05-09T18:52:17.264Z,93.16
2019-05-09T18:54:47.425Z,93.48
2019-05-09T18:57:18.264Z,93.87
2019-05-09T18:59:47.633Z,94.18
2019-05-09T19:02:17.100Z,94.51
2019-05-09T19:04:46.461Z,94.86
2019-05-09T19:07:22.590Z,95.15
2019-05-09T19:09:48.723Z,95.42
2019-05-09T19:12:18.090Z,95.68
2019-05-09T19:14:48.324Z,96.00
2019-05-09T19:17:19.348Z,96.16
2019-05-09T19:19:55.907Z,96.29
2019-05-09T19:22:25.285Z,96.43
2019-05-09T19:24:54.666Z,96.56
2019-05-09T19:27:24.038Z,96.62
2019-05-09T19:29:53.428Z,96.72
2019-05-09T19:32:23.916Z,96.95
2019-05-09T19:34:53.322Z,97.06
2019-05-09T19:37:22.711Z,97.27
2019-05-09T19:39:52.081Z,97.46
2019-05-09T19:42:21.471Z,97.66
2019-05-09T19:44:50.880Z,97.84
2019-05-09T19:47:20.265Z,97.97
2019-05-09T19:49:49.631Z,98.14
2019-05-09T19:52:19.014Z,98.31
2019-05-09T19:54:48.389Z,98.51
2019-05-09T19:57:17.787Z,98.81
2019-05-09T19:59:47.126Z,98.70
2019-05-09T20:02:16.482Z,98.80
2019-05-09T20:04:45.897Z,98.88
2019-05-09T20:07:15.239Z,99.68
2019-05-09T20:09:46.292Z,99.68
2019-05-09T20:12:17.298Z,99.19
2019-05-09T20:14:48.290Z,99.30
2019-05-09T20:17:17.624Z,99.42
2019-05-09T20:19:46.997Z,99.60
2019-05-09T20:22:16.356Z,99.60
2019-05-09T20:24:45.732Z,99.83
2019-05-09T20:27:15.083Z,99.75
2019-05-09T20:29:44.453Z,99.75
2019-05-09T20:32:13.805Z,100.00
2019-05-09T20:34:43.157Z,100.00
2019-05-09T20:37:12.533Z,100.00
2019-05-09T20:39:42.102Z,100.00
2019-05-09T20:42:11.627Z,100.00
2019-05-09T20:44:41.186Z,100.00
2019-05-09T20:47:10.733Z,100.00
2019-05-09T20:49:40.290Z,100.00
2019-05-09T20:52:09.845Z,100.00
2019-05-09T20:54:39.420Z,100.00
2019-05-09T20:57:08.973Z,100.00
2019-05-09T20:59:38.516Z,100.00
2019-05-09T21:02:08.057Z,100.00
2019-05-09T21:04:37.600Z,100.00
2019-05-09T21:07:07.225Z,100.00
2019-05-09T21:09:36.791Z,100.00
2019-05-09T21:12:06.370Z,100.00
2019-05-09T21:14:35.905Z,100.00
2019-05-09T21:17:06.561Z,100.00
2019-05-09T21:19:36.098Z,100.00
2019-05-09T21:22:05.677Z,100.00
2019-05-09T21:24:35.212Z,100.00
2019-05-09T21:27:04.773Z,100.00
2019-05-09T21:29:35.073Z,100.00
2019-05-09T21:32:04.657Z,100.00
2019-05-09T21:37:21.832Z,100.00
2019-05-09T21:39:51.186Z,100.00
2019-05-09T21:42:20.562Z,100.00
2019-05-09T21:44:49.943Z,100.00
2019-05-09T21:47:19.333Z,100.00
2019-05-09T21:49:48.696Z,100.00
2019-05-09T21:52:18.079Z,100.00
2019-05-09T21:54:47.419Z,100.00
2019-05-09T21:57:16.828Z,100.00
2019-05-09T21:59:46.191Z,100.00
2019-05-09T22:02:15.906Z,100.00
2019-05-09T22:04:45.442Z,100.00
2019-05-09T22:07:14.966Z,100.00
2019-05-09T22:09:44.346Z,100.00
2019-05-09T22:12:13.800Z,100.00
2019-05-09T22:14:43.156Z,100.00
2019-05-09T22:17:14.157Z,100.00
2019-05-09T22:19:43.665Z,100.00
2019-05-09T22:22:13.099Z,100.00
2019-05-09T22:24:42.450Z,100.00
2019-05-09T22:27:11.850Z,100.00
2019-05-09T22:29:41.189Z,100.00
2019-05-09T22:32:10.542Z,100.00
2019-05-09T22:34:39.900Z,100.00
2019-05-09T22:37:09.281Z,100.00
2019-05-09T22:39:38.653Z,100.00
2019-05-09T22:42:08.067Z,100.00
2019-05-09T22:44:37.436Z,100.00
2019-05-09T22:47:06.811Z,100.00
2019-05-09T22:49:37.193Z,100.00
2019-05-09T22:52:06.573Z,100.00
2019-05-09T22:54:35.918Z,100.00
2019-05-09T22:57:05.279Z,100.00
2019-05-09T22:59:34.661Z,100.00
2019-05-09T23:02:07.046Z,100.00
2019-05-09T23:04:35.093Z,100.00
2019-05-09T23:07:04.613Z,100.00
2019-05-09T23:09:33.983Z,100.00
2019-05-09T23:12:03.354Z,100.00
2019-05-09T23:14:32.707Z,100.00
2019-05-09T23:17:02.158Z,100.00
2019-05-09T23:19:31.525Z,100.00
2019-05-09T23:22:00.888Z,100.00
2019-05-09T23:24:34.833Z,100.00
2019-05-09T23:27:04.357Z,100.00
2019-05-09T23:29:33.710Z,100.00
2019-05-09T23:32:16.560Z,100.00
2019-05-09T23:34:45.904Z,100.00
2019-05-09T23:37:15.308Z,100.00
2019-05-09T23:39:46.323Z,100.00
2019-05-09T23:42:15.695Z,100.00
2019-05-09T23:44:45.040Z,100.00
2019-05-09T23:47:14.385Z,100.00
2019-05-09T23:49:43.727Z,100.00
2019-05-09T23:52:13.067Z,100.00
2019-05-09T23:55:00.228Z,100.00
2019-05-09T23:57:47.435Z,100.00
